Time;durP1;ratioP1;P1;durP2;ratioP2;P2;SDS_P1;SDS_P2;PMS_P1;PMS_P2;Temp;Humidity;BMP_temperature;BMP_pressure;BME280_temperature;BME280_humidity;BME280_pressure;Samples;Min_cycle;Max_cycle;Signal;HPM_P1;HPM_P2
2023/03/21 00:02:34;;;;;;;5.22;2.65;;;4.90;99.90;;;;;;20809115;28;20056;-77
2023/03/21 00:12:36;;;;;;;;;;;4.90;99.90;;;;;;20857498;28;20113;-77
2023/03/21 00:22:37;;;;;;;6.22;2.03;;;4.70;99.90;;;;;;20845679;28;19915;-75
2023/03/21 00:32:38;;;;;;;3.00;2.03;;;4.60;99.90;;;;;;20844718;28;20037;-77
2023/03/21 00:42:39;;;;;;;5.82;2.88;;;4.30;99.90;;;;;;20848368;28;20092;-77
2023/03/21 00:52:40;;;;;;;4.38;2.45;;;4.20;99.90;;;;;;20843057;28;20040;-77
2023/03/21 01:02:56;;;;;;;5.13;2.15;;;4.30;99.90;;;;;;20840603;28;20128;-77
2023/03/21 01:12:56;;;;;;;7.35;2.38;;;4.20;99.90;;;;;;20821042;28;20033;-76
2023/03/21 01:22:57;;;;;;;2.97;2.08;;;3.90;99.90;;;;;;20842360;28;20038;-76
2023/03/21 01:32:58;;;;;;;2.80;1.67;;;4.10;99.90;;;;;;20840336;28;20026;-77
2023/03/21 01:42:59;;;;;;;4.70;2.60;;;3.90;99.90;;;;;;20839085;28;20029;-76
2023/03/21 01:53:02;;;;;;;4.50;2.70;;;3.90;99.90;;;;;;20832939;28;20083;-77
2023/03/21 02:03:10;;;;;;;4.50;2.25;;;3.60;99.90;;;;;;20832990;28;20029;-77
2023/03/21 02:13:21;;;;;;;4.43;2.38;;;3.50;99.90;;;;;;20833704;28;20033;-76
2023/03/21 02:23:53;;;;;;;8.23;3.03;;;3.60;99.90;;;;;;20834385;28;20427;-77
2023/03/21 02:34:31;;;;;;;4.55;2.35;;;3.60;99.90;;;;;;20833978;28;20064;-77
2023/03/21 02:44:53;;;;;;;7.35;1.88;;;3.40;99.90;;;;;;20830783;28;20037;-77
2023/03/21 02:54:57;;;;;;;9.40;2.20;;;3.20;99.90;;;;;;20830801;28;20029;-77
2023/03/21 03:05:16;;;;;;;3.00;1.50;;;3.20;99.90;;;;;;20830919;28;20382;-77
2023/03/21 03:15:27;;;;;;;6.30;1.98;;;3.10;99.90;;;;;;20828234;28;20040;-77
2023/03/21 03:25:36;;;;;;;5.18;2.00;;;3.10;99.90;;;;;;20831153;28;20075;-77
2023/03/21 03:35:37;;;;;;;5.13;1.73;;;2.90;99.90;;;;;;20838406;28;20356;-77
2023/03/21 03:46:00;;;;;;;4.95;2.38;;;3.00;99.90;;;;;;20833042;28;20044;-77
2023/03/21 03:56:03;;;;;;;4.82;1.95;;;2.90;99.90;;;;;;20827713;28;20121;-78
2023/03/21 04:06:05;;;;;;;5.50;2.03;;;3.10;99.90;;;;;;20786616;28;20076;-78
2023/03/21 04:16:08;;;;;;;4.30;2.38;;;3.00;99.90;;;;;;20753658;28;20096;-77
2023/03/21 04:26:09;;;;;;;4.20;1.75;;;2.90;99.90;;;;;;20751368;28;20504;-78
2023/03/21 04:36:29;;;;;;;5.00;1.85;;;2.70;99.90;;;;;;20827033;28;20022;-78
2023/03/21 04:46:34;;;;;;;4.82;2.25;;;2.60;99.90;;;;;;20833866;28;20037;-78
2023/03/21 04:56:35;;;;;;;2.30;1.45;;;2.50;99.90;;;;;;20845461;28;20029;-77
2023/03/21 05:06:37;;;;;;;2.72;1.30;;;2.70;99.90;;;;;;20839604;28;20435;-77
2023/03/21 05:16:47;;;;;;;5.10;1.20;;;3.00;99.90;;;;;;20794948;28;20044;-77
2023/03/21 05:26:51;;;;;;;5.07;1.80;;;3.10;99.90;;;;;;20752434;28;20053;-77
2023/03/21 05:36:56;;;;;;;3.42;1.50;;;3.00;99.90;;;;;;20809355;28;20492;-77
2023/03/21 05:46:59;;;;;;;2.33;1.35;;;3.10;99.90;;;;;;20784914;28;20080;-77
2023/03/21 05:57:10;;;;;;;5.18;2.70;;;3.10;99.90;;;;;;20786821;28;20033;-77
2023/03/21 06:07:38;;;;;;;4.38;2.38;;;3.30;99.90;;;;;;20946482;23;20383;-80
2023/03/21 06:17:40;;;;;;;4.25;2.63;;;3.40;99.90;;;;;;20939081;28;20032;-79
2023/03/21 06:27:45;;;;;;;6.78;3.13;;;4.20;99.90;;;;;;20946455;28;20056;-79
2023/03/21 06:37:48;;;;;;;5.00;2.65;;;5.00;99.90;;;;;;21043838;28;20029;-79
2023/03/21 06:47:49;;;;;;;6.78;2.97;;;5.80;99.90;;;;;;21017678;28;20035;-79
2023/03/21 06:58:01;;;;;;;7.50;2.85;;;6.50;99.90;;;;;;20978164;28;20101;-79
2023/03/21 07:08:02;;;;;;;8.55;3.55;;;7.20;99.90;;;;;;20895986;28;20025;-79
2023/03/21 07:18:06;;;;;;;6.85;2.75;;;7.40;99.90;;;;;;20917619;28;20032;-78
2023/03/21 07:28:08;;;;;;;5.45;3.13;;;7.40;99.90;;;;;;20909241;28;20116;-78
2023/03/21 07:38:09;;;;;;;6.35;2.92;;;8.00;99.90;;;;;;21002904;28;20115;-79
2023/03/21 07:48:16;;;;;;;9.48;3.10;;;8.50;99.90;;;;;;21009431;28;20048;-79
2023/03/21 07:58:17;;;;;;;8.55;2.58;;;8.40;99.90;;;;;;20992548;28;20115;-78
2023/03/21 08:08:18;;;;;;;4.85;3.00;;;9.20;99.90;;;;;;21004078;28;20127;-79
2023/03/21 08:18:19;;;;;;;8.97;4.47;;;8.90;99.90;;;;;;21021454;28;20040;-79
2023/03/21 08:28:20;;;;;;;5.50;3.60;;;9.50;99.90;;;;;;20999619;28;20127;-78
2023/03/21 08:38:21;;;;;;;7.15;3.63;;;9.00;99.90;;;;;;20937368;28;20079;-78
2023/03/21 08:48:22;;;;;;;4.37;3.00;;;9.10;99.90;;;;;;20935785;28;20376;-78
2023/03/21 08:58:23;;;;;;;6.67;3.40;;;9.40;99.90;;;;;;20937543;28;20024;-79
2023/03/21 09:08:23;;;;;;;4.77;2.57;;;9.70;99.90;;;;;;20935351;28;20029;-79
2023/03/21 09:18:44;;;;;;;5.17;3.30;;;9.80;99.90;;;;;;20936256;28;20324;-79
2023/03/21 09:28:48;;;;;;;6.80;3.58;;;10.00;99.90;;;;;;20933085;28;20041;-78
2023/03/21 09:38:50;;;;;;;12.00;4.18;;;10.70;99.90;;;;;;20932780;28;20517;-78
2023/03/21 09:49:09;;;;;;;4.85;3.35;;;11.50;99.90;;;;;;20914741;28;20044;-79
2023/03/21 09:59:26;;;;;;;9.68;4.45;;;12.20;99.90;;;;;;20931900;28;20118;-79
2023/03/21 10:09:31;;;;;;;5.45;3.75;;;13.20;99.90;;;;;;20931705;28;20029;-79
2023/03/21 10:19:31;;;;;;;8.75;4.13;;;13.30;99.90;;;;;;20931379;28;20089;-79
2023/03/21 10:29:42;;;;;;;6.23;3.70;;;14.60;99.90;;;;;;20929299;28;20037;-79
2023/03/21 10:39:47;;;;;;;5.28;3.33;;;15.90;99.90;;;;;;20934001;28;20025;-79
2023/03/21 10:49:48;;;;;;;9.45;3.88;;;16.00;99.90;;;;;;20934604;28;20028;-79
2023/03/21 10:59:58;;;;;;;7.27;4.13;;;16.20;99.90;;;;;;20929031;28;20040;-81
2023/03/21 11:10:11;;;;;;;6.30;3.38;;;16.00;99.90;;;;;;20933072;28;20029;-79
2023/03/21 11:20:20;;;;;;;5.15;3.03;;;17.00;99.90;;;;;;20934169;28;20487;-79
2023/03/21 11:30:26;;;;;;;7.68;4.00;;;16.50;99.90;;;;;;20927525;28;20143;-79
2023/03/21 11:40:35;;;;;;;5.55;3.55;;;16.00;99.90;;;;;;20922049;28;20106;-79
2023/03/21 11:50:46;;;;;;;3.22;2.50;;;16.90;99.90;;;;;;20942642;28;20062;-79
2023/03/21 12:01:17;;;;;;;4.23;2.27;;;17.50;99.90;;;;;;20961296;23;20076;-78
2023/03/21 12:11:43;;;;;;;4.63;2.28;;;17.10;99.90;;;;;;21003401;28;20037;-77
2023/03/21 12:22:13;;;;;;;3.25;1.80;;;16.90;99.90;;;;;;21006826;28;20494;-78
2023/03/21 12:32:14;;;;;;;4.18;1.90;;;16.30;99.90;;;;;;20934479;28;20029;-77
2023/03/21 12:42:30;;;;;;;2.53;1.70;;;17.00;99.90;;;;;;20840140;28;20036;-77
2023/03/21 12:52:39;;;;;;;6.90;1.75;;;16.70;99.90;;;;;;20873452;28;20045;-77
2023/03/21 13:02:46;;;;;;;0.93;0.50;;;16.50;99.90;;;;;;20905235;28;20071;-78
2023/03/21 13:12:49;;;;;;;2.58;1.00;;;16.00;99.90;;;;;;20926018;28;20037;-77
2023/03/21 13:22:50;;;;;;;1.58;0.63;;;16.50;99.90;;;;;;20921124;28;20104;-78
2023/03/21 13:33:11;;;;;;;4.93;1.67;;;16.10;99.90;;;;;;20922093;28;20056;-78
2023/03/21 13:43:40;;;;;;;6.90;1.70;;;16.50;99.90;;;;;;20920568;28;20047;-79
2023/03/21 13:53:57;;;;;;;3.40;1.60;;;16.30;99.90;;;;;;20917565;28;20086;-77
2023/03/21 14:04:01;;;;;;;3.38;1.10;;;16.10;99.90;;;;;;20915086;28;20029;-78
2023/03/21 14:14:03;;;;;;;2.22;1.48;;;16.50;99.90;;;;;;20918418;28;20025;-78
2023/03/21 14:24:10;;;;;;;2.80;1.35;;;16.40;99.90;;;;;;20893626;28;20029;-78
2023/03/21 14:34:13;;;;;;;2.47;1.50;;;16.40;99.90;;;;;;20881108;28;20119;-78
2023/03/21 14:44:27;;;;;;;3.42;1.58;;;16.50;99.90;;;;;;20906705;28;20033;-78
2023/03/21 14:54:30;;;;;;;2.72;1.70;;;16.40;99.90;;;;;;20919477;28;20469;-79
2023/03/21 15:04:31;;;;;;;4.47;1.90;;;16.60;99.90;;;;;;20915461;28;20090;-79
2023/03/21 15:14:33;;;;;;;;;;;16.40;99.90;;;;;;20910853;28;20036;-79
2023/03/21 15:24:41;;;;;;;2.35;1.00;;;16.40;99.90;;;;;;20908267;28;19913;-78
2023/03/21 15:34:43;;;;;;;2.60;1.00;;;16.50;99.90;;;;;;20929578;28;20025;-77
2023/03/21 15:44:50;;;;;;;2.92;0.80;;;16.30;99.90;;;;;;20918194;28;20117;-79
2023/03/21 15:55:01;;;;;;;2.75;1.00;;;16.20;99.90;;;;;;20921357;28;20085;-78
2023/03/21 16:05:23;;;;;;;3.42;1.00;;;16.20;99.90;;;;;;20919250;28;20032;-78
2023/03/21 16:15:27;;;;;;;2.60;1.40;;;16.00;99.90;;;;;;20924445;28;20047;-78
2023/03/21 16:25:29;;;;;;;2.45;0.80;;;15.80;99.90;;;;;;20931518;28;20043;-78
2023/03/21 16:35:30;;;;;;;1.42;0.80;;;15.80;99.90;;;;;;20933728;28;20112;-79
2023/03/21 16:45:31;;;;;;;2.70;1.07;;;15.60;99.90;;;;;;20931327;28;20032;-78
2023/03/21 16:55:33;;;;;;;1.37;0.70;;;15.50;99.90;;;;;;20903021;28;20033;-78
2023/03/21 17:05:34;;;;;;;1.88;0.88;;;15.30;99.90;;;;;;20908452;28;20048;-78
2023/03/21 17:15:35;;;;;;;1.87;0.90;;;15.20;99.90;;;;;;20925539;28;20391;-78
2023/03/21 17:25:35;;;;;;;2.33;0.90;;;14.80;99.90;;;;;;20851624;28;20089;-79
2023/03/21 17:35:36;;;;;;;1.77;1.03;;;14.40;99.90;;;;;;20906418;28;20491;-79
2023/03/21 17:45:37;;;;;;;6.63;1.70;;;14.10;99.90;;;;;;20893694;28;20075;-79
2023/03/21 17:55:38;;;;;;;5.60;2.07;;;13.90;99.90;;;;;;20929617;28;20059;-78
2023/03/21 18:05:39;;;;;;;7.88;1.95;;;13.50;99.90;;;;;;20904171;23;20049;-79
2023/03/21 18:15:41;;;;;;;4.03;2.30;;;13.20;99.90;;;;;;20792596;28;20031;-79
2023/03/21 18:25:42;;;;;;;5.35;2.95;;;12.90;99.90;;;;;;20757597;28;20030;-80
2023/03/21 18:35:43;;;;;;;9.23;3.17;;;12.50;99.90;;;;;;20749534;28;20040;-79
2023/03/21 18:45:43;;;;;;;6.47;2.73;;;12.20;99.90;;;;;;20748509;28;20473;-79
2023/03/21 18:55:44;;;;;;;5.20;2.70;;;12.10;99.90;;;;;;20748962;28;20030;-80
2023/03/21 19:05:45;;;;;;;6.37;2.33;;;11.90;99.90;;;;;;20813237;28;20045;-80
2023/03/21 19:15:46;;;;;;;3.63;1.75;;;11.90;99.90;;;;;;20804204;28;20038;-80
2023/03/21 19:25:47;;;;;;;4.50;2.10;;;11.70;99.90;;;;;;20747656;28;20030;-80
2023/03/21 19:35:49;;;;;;;4.60;2.13;;;11.70;99.90;;;;;;20729269;28;20034;-80
2023/03/21 19:45:51;;;;;;;3.25;1.60;;;11.50;99.90;;;;;;20747035;28;20026;-79
2023/03/21 19:55:52;;;;;;;4.60;1.95;;;11.30;99.90;;;;;;20751904;28;20038;-80
2023/03/21 20:06:04;;;;;;;10.93;5.50;;;11.20;99.90;;;;;;20808043;28;20454;-80
2023/03/21 20:16:05;;;;;;;12.00;4.32;;;11.10;99.90;;;;;;20793916;28;20030;-80
2023/03/21 20:26:12;;;;;;;10.03;4.00;;;11.20;99.90;;;;;;20760544;28;20124;-80
2023/03/21 20:36:13;;;;;;;11.23;5.22;;;11.10;99.90;;;;;;20758167;28;20034;-79
2023/03/21 20:46:15;;;;;;;13.07;5.20;;;11.10;99.90;;;;;;20824560;28;20060;-80
2023/03/21 20:56:16;;;;;;;8.60;3.83;;;10.80;99.90;;;;;;20839058;28;20037;-79
2023/03/21 21:06:20;;;;;;;7.60;2.67;;;10.60;99.90;;;;;;20805112;28;20041;-80
2023/03/21 21:16:21;;;;;;;9.15;4.35;;;10.60;99.90;;;;;;20823600;28;20073;-79
2023/03/21 21:26:22;;;;;;;9.38;3.35;;;10.70;99.90;;;;;;20834372;28;20392;-80
2023/03/21 21:36:22;;;;;;;11.73;3.70;;;10.70;99.90;;;;;;20834108;28;20049;-80
2023/03/21 21:46:23;;;;;;;9.33;3.93;;;10.50;99.90;;;;;;20833606;28;20057;-80
2023/03/21 21:56:30;;;;;;;6.80;3.07;;;10.60;99.90;;;;;;20834342;28;20419;-80
2023/03/21 22:06:33;;;;;;;6.10;2.20;;;10.60;99.90;;;;;;20832479;28;20053;-80
2023/03/21 22:16:34;;;;;;;7.95;4.30;;;10.70;99.90;;;;;;20830050;28;20036;-80
2023/03/21 22:26:35;;;;;;;11.10;5.37;;;10.70;99.90;;;;;;20792495;28;20734;-81
2023/03/21 22:36:35;;;;;;;9.17;5.60;;;10.50;99.90;;;;;;20785921;28;20095;-80
2023/03/21 22:46:36;;;;;;;9.63;5.13;;;10.40;99.90;;;;;;20804806;28;20086;-80
2023/03/21 22:56:37;;;;;;;16.53;5.30;;;10.40;99.90;;;;;;20829751;28;20030;-80
2023/03/21 23:06:38;;;;;;;16.97;4.87;;;10.30;99.90;;;;;;20827796;28;20033;-80
2023/03/21 23:16:39;;;;;;;12.47;5.30;;;10.40;99.90;;;;;;20826169;28;20033;-81
2023/03/21 23:26:40;;;;;;;10.82;6.60;;;10.40;99.90;;;;;;20826624;28;20502;-81
2023/03/21 23:36:41;;;;;;;9.37;5.73;;;10.20;99.90;;;;;;20828188;28;20040;-81
2023/03/21 23:46:43;;;;;;;8.35;4.47;;;9.90;99.90;;;;;;20829743;28;20105;-81
2023/03/21 23:56:44;;;;;;;9.37;4.20;;;9.90;99.90;;;;;;20827589;28;20053;-80
